Time;durP1;ratioP1;P1;durP2;ratioP2;P2;SDS_P1;SDS_P2;PMS_P1;PMS_P2;Temp;Humidity;BMP_temperature;BMP_pressure;BME280_temperature;BME280_humidity;BME280_pressure;Samples;Min_cycle;Max_cycle;Signal;HPM_P1;HPM_P2
2023/08/17 00:03:55;;;;;;;11.63;3.05;;;;;;;22.30;60.73;100039.25;10459474;28;20115;-73
2023/08/17 00:08:56;;;;;;;8.10;3.05;;;;;;;22.16;61.16;100033.38;10458350;28;20044;-73
2023/08/17 00:13:56;;;;;;;15.95;2.95;;;;;;;22.21;62.05;100055.09;10458553;28;20045;-73
2023/08/17 00:18:57;;;;;;;11.10;2.90;;;;;;;22.18;62.60;100039.38;10458540;28;20036;-73
2023/08/17 00:23:58;;;;;;;15.43;3.08;;;;;;;22.18;62.88;100060.22;10458542;28;20048;-73
2023/08/17 00:28:59;;;;;;;11.00;2.53;;;;;;;21.71;62.86;99991.16;10456976;28;20393;-73
2023/08/17 00:34:00;;;;;;;20.60;3.50;;;;;;;22.02;63.40;100051.06;10458881;28;20041;-73
2023/08/17 00:39:01;;;;;;;10.57;3.63;;;;;;;21.94;63.69;100052.31;10457953;28;20052;-73
2023/08/17 00:44:02;;;;;;;8.95;2.53;;;;;;;21.91;63.53;100049.28;10457313;28;20037;-73
2023/08/17 00:49:03;;;;;;;11.77;3.08;;;;;;;21.86;64.21;100058.94;10458225;28;20045;-73
2023/08/17 00:54:04;;;;;;;17.23;3.63;;;;;;;21.15;63.80;99944.41;10456834;28;20064;-73
2023/08/17 00:59:05;;;;;;;12.90;3.08;;;;;;;21.57;63.44;100030.44;10457145;28;20041;-73
2023/08/17 01:04:06;;;;;;;10.35;3.38;;;;;;;21.58;64.26;100040.16;10456656;28;20061;-73
2023/08/17 01:09:08;;;;;;;9.00;2.85;;;;;;;21.32;63.74;100007.31;10456745;28;20037;-73
2023/08/17 01:14:25;;;;;;;15.88;3.35;;;;;;;21.52;64.88;100027.66;10456582;28;20458;-73
2023/08/17 01:19:28;;;;;;;25.45;3.60;;;;;;;21.51;65.27;100047.63;10455112;28;20033;-73
2023/08/17 01:24:29;;;;;;;13.60;2.85;;;;;;;21.38;64.25;100043.38;10456249;28;20412;-73
2023/08/17 01:29:30;;;;;;;9.60;3.28;;;;;;;21.06;64.33;99978.28;10453252;28;20048;-73
2023/08/17 01:34:37;;;;;;;14.50;3.50;;;;;;;21.51;64.44;100071.94;10455677;28;20519;-75
2023/08/17 01:39:42;;;;;;;27.20;3.90;;;;;;;21.44;65.05;100053.19;10476131;28;20032;-73
2023/08/17 01:44:44;;;;;;;28.10;3.85;;;;;;;21.24;64.57;100056.38;10496005;28;20044;-73
2023/08/17 01:49:44;;;;;;;18.23;3.90;;;;;;;20.89;64.26;100006.09;10469843;28;20460;-73
2023/08/17 01:54:45;;;;;;;83.90;7.18;;;;;;;20.83;64.61;99998.97;10494312;28;20135;-73
2023/08/17 01:59:46;;;;;;;137.90;10.23;;;;;;;20.95;65.09;100037.53;10459378;28;20181;-73
2023/08/17 02:04:47;;;;;;;24.48;4.30;;;;;;;21.13;65.06;100066.19;10496037;28;20086;-72
2023/08/17 02:09:47;;;;;;;61.35;6.03;;;;;;;20.94;65.42;100054.78;10480112;28;20143;-73
2023/08/17 02:14:48;;;;;;;28.95;4.15;;;;;;;21.05;65.30;100071.97;10466204;28;20056;-73
2023/08/17 02:19:49;;;;;;;269.75;16.90;;;;;;;21.03;65.87;100078.69;10479930;28;20077;-74
2023/08/17 02:24:50;;;;;;;55.70;6.78;;;;;;;20.94;66.17;100078.28;10488522;28;20062;-74
2023/08/17 02:29:51;;;;;;;174.38;13.73;;;;;;;20.71;66.63;100030.63;10470747;28;20127;-73
2023/08/17 02:34:51;;;;;;;28.88;5.07;;;;;;;20.73;65.87;100012.28;10480426;28;20038;-73
2023/08/17 02:39:52;;;;;;;49.10;6.32;;;;;;;21.12;65.72;100069.97;10489970;28;20041;-74
2023/08/17 02:44:53;;;;;;;36.03;4.97;;;;;;;21.29;65.21;100069.94;10503086;28;20402;-73
2023/08/17 02:49:53;;;;;;;20.75;4.45;;;;;;;21.61;64.57;100088.31;10503843;28;20044;-73
2023/08/17 02:54:54;;;;;;;29.73;4.68;;;;;;;21.73;63.85;100064.72;10502776;28;20032;-73
2023/08/17 02:59:55;;;;;;;48.53;5.18;;;;;;;22.03;63.98;100088.66;10502898;28;20042;-73
2023/08/17 03:04:55;;;;;;;77.60;8.25;;;;;;;22.59;63.60;100098.59;10502628;28;20052;-73
2023/08/17 03:09:56;;;;;;;29.05;4.30;;;;;;;23.59;60.83;100097.13;10502939;28;20036;-73
2023/08/17 03:14:57;;;;;;;38.50;4.97;;;;;;;24.13;58.24;100026.38;10502604;28;20040;-74
2023/08/17 03:19:59;;;;;;;28.27;3.47;;;;;;;25.60;56.75;100102.19;10502105;28;20040;-74
2023/08/17 03:25:01;;;;;;;25.43;3.80;;;;;;;26.23;54.81;100059.06;10502018;28;20431;-73
2023/08/17 03:30:02;;;;;;;26.63;4.03;;;;;;;27.18;52.90;100106.25;10491975;28;20564;-74
2023/08/17 03:35:03;;;;;;;45.63;4.25;;;;;;;27.71;51.19;100058.03;10462174;28;20059;-72
2023/08/17 03:40:04;;;;;;;20.15;3.08;;;;;;;28.59;48.83;100107.03;10461261;28;20045;-74
2023/08/17 03:45:06;;;;;;;23.33;3.45;;;;;;;29.23;47.33;100099.31;10479804;28;20036;-75
2023/08/17 03:50:07;;;;;;;28.70;4.30;;;;;;;29.64;46.66;100115.06;10492449;28;20101;-74
2023/08/17 03:55:08;;;;;;;22.45;3.63;;;;;;;30.09;45.37;100109.84;10472720;28;20048;-75
2023/08/17 04:00:10;;;;;;;23.30;3.58;;;;;;;30.56;44.57;100121.50;10459522;28;20048;-75
2023/08/17 04:05:10;;;;;;;15.10;3.47;;;;;;;30.67;43.99;100112.75;10470687;28;20493;-74
2023/08/17 04:10:11;;;;;;;17.77;3.63;;;;;;;30.90;42.89;100113.66;10476323;28;20045;-75
2023/08/17 04:15:12;;;;;;;19.30;3.65;;;;;;;30.92;42.54;100116.06;10481258;28;20044;-75
2023/08/17 04:20:13;;;;;;;37.42;4.68;;;;;;;31.26;42.78;100106.47;10458797;28;20072;-74
2023/08/17 04:25:14;;;;;;;25.60;3.90;;;;;;;31.46;42.33;100099.72;10464506;28;20036;-75
2023/08/17 04:30:15;;;;;;;20.45;3.42;;;;;;;31.66;41.91;100092.88;10478717;28;20041;-75
2023/08/17 04:35:15;;;;;;;40.83;4.63;;;;;;;31.97;42.39;100095.63;10481914;28;20545;-75
2023/08/17 04:40:16;;;;;;;18.25;3.83;;;;;;;32.19;40.69;100057.09;10465834;28;20048;-76
2023/08/17 04:45:17;;;;;;;18.63;3.80;;;;;;;32.48;40.19;100058.44;10458286;28;20519;-75
2023/08/17 04:50:18;;;;;;;30.80;4.72;;;;;;;32.57;40.36;100095.00;10479889;28;20086;-75
2023/08/17 04:55:18;;;;;;;65.07;6.90;;;;;;;32.63;40.74;100096.47;10498914;28;20045;-75
2023/08/17 05:00:25;;;;;;;28.50;4.32;;;;;;;32.67;39.92;100089.22;10498575;28;20036;-76
2023/08/17 05:05:26;;;;;;;55.47;5.30;;;;;;;31.80;41.48;100005.69;10498241;28;20060;-75
2023/08/17 05:10:27;;;;;;;24.75;4.50;;;;;;;31.83;40.87;100055.34;10498173;28;20561;-75
2023/08/17 05:15:27;;;;;;;27.77;5.25;;;;;;;31.65;41.35;100078.34;10498064;28;20037;-75
2023/08/17 05:20:28;;;;;;;33.28;6.43;;;;;;;31.45;41.52;100059.69;10497033;28;20055;-75
2023/08/17 05:25:29;;;;;;;27.88;4.30;;;;;;;31.56;41.47;100080.22;10496825;28;20044;-75
2023/08/17 05:30:30;;;;;;;24.30;4.07;;;;;;;31.78;41.99;100084.88;10497765;28;20044;-74
2023/08/17 05:35:30;;;;;;;17.38;3.13;;;;;;;31.95;41.98;100084.97;10497526;28;20044;-75
2023/08/17 05:40:32;;;;;;;21.20;3.78;;;;;;;31.86;41.28;100061.28;10496747;28;20127;-75
2023/08/17 05:45:36;;;;;;;15.30;3.17;;;;;;;32.12;41.47;100084.22;10496754;28;20050;-74
2023/08/17 05:50:37;;;;;;;24.58;3.60;;;;;;;32.27;41.33;100063.72;10496094;28;20044;-74
2023/08/17 05:55:38;;;;;;;23.90;3.80;;;;;;;32.58;40.88;100080.16;10496465;28;20041;-75
2023/08/17 06:00:38;;;;;;;16.98;3.05;;;;;;;32.38;41.02;100003.75;10496253;28;20047;-74
2023/08/17 06:05:40;;;;;;;17.55;3.47;;;;;;;32.69;40.07;100023.69;10496406;28;20541;-74
2023/08/17 06:10:40;;;;;;;18.88;3.28;;;;;;;32.80;39.99;99998.59;10496184;28;20043;-73
2023/08/17 06:15:41;;;;;;;12.15;3.00;;;;;;;32.70;38.78;99967.56;10495464;28;20056;-74
2023/08/17 06:20:42;;;;;;;11.23;2.88;;;;;;;33.34;38.07;100029.28;10496636;28;20040;-74
2023/08/17 06:25:43;;;;;;;29.25;4.00;;;;;;;33.94;37.56;100072.34;10496335;28;20107;-74
2023/08/17 06:30:44;;;;;;;15.70;3.10;;;;;;;33.86;34.86;99996.03;10495745;28;20044;-74
2023/08/17 06:35:44;;;;;;;10.02;2.78;;;;;;;34.42;34.31;100059.28;10494880;28;20154;-74
2023/08/17 06:40:46;;;;;;;5.28;2.03;;;;;;;34.64;33.57;100061.75;10494958;28;20045;-73
2023/08/17 06:45:47;;;;;;;5.23;2.20;;;;;;;34.42;33.27;99993.09;10495296;28;20090;-73
2023/08/17 06:50:48;;;;;;;7.10;2.20;;;;;;;34.66;32.59;100056.69;10494026;28;20048;-74
2023/08/17 06:55:48;;;;;;;25.80;3.72;;;;;;;34.87;32.87;100020.00;10494616;28;20054;-73
2023/08/17 07:00:49;;;;;;;8.18;2.50;;;;;;;34.70;32.00;99976.81;10494765;28;20048;-74
2023/08/17 07:05:50;;;;;;;10.25;2.58;;;;;;;35.07;32.09;100021.94;10495317;28;20057;-72
2023/08/17 07:10:51;;;;;;;10.05;2.85;;;;;;;35.17;31.49;100013.22;10494756;28;20040;-73
2023/08/17 07:15:52;;;;;;;5.78;2.33;;;;;;;34.92;30.33;99984.72;10494731;28;20037;-73
2023/08/17 07:20:52;;;;;;;15.30;3.05;;;;;;;35.23;29.78;100013.81;10494187;28;20043;-73
2023/08/17 07:25:53;;;;;;;6.00;2.20;;;;;;;35.31;30.00;100003.81;10497038;28;20044;-72
2023/08/17 07:30:54;;;;;;;12.45;3.05;;;;;;;35.13;30.06;99992.16;10501354;28;20079;-73
2023/08/17 07:35:55;;;;;;;7.82;2.22;;;;;;;35.22;29.82;100026.81;10501699;28;20074;-74
2023/08/17 07:40:57;;;;;;;5.53;2.60;;;;;;;34.93;29.25;99993.81;10502242;28;20047;-74
2023/08/17 07:45:58;;;;;;;6.20;2.40;;;;;;;35.38;29.08;99998.53;10501136;28;20055;-73
2023/08/17 07:50:59;;;;;;;8.90;2.57;;;;;;;35.58;28.14;99985.81;10500569;28;20068;-73
2023/08/17 07:56:00;;;;;;;7.10;2.30;;;;;;;35.56;28.05;99979.81;10500578;28;20045;-73
2023/08/17 08:01:01;;;;;;;12.13;2.60;;;;;;;36.04;28.62;100003.06;10500310;28;20152;-73
2023/08/17 08:06:02;;;;;;;5.43;2.42;;;;;;;35.84;28.62;99919.94;10501206;28;20087;-73
2023/08/17 08:11:04;;;;;;;12.07;2.60;;;;;;;35.79;28.34;99978.19;10501078;28;20037;-73
2023/08/17 08:16:05;;;;;;;;;;;;;;;36.22;28.00;99998.88;10500257;28;20147;-72
2023/08/17 08:21:06;;;;;;;10.35;2.30;;;;;;;35.83;27.67;99992.94;10499630;28;19912;-74
2023/08/17 08:26:07;;;;;;;8.43;2.50;;;;;;;35.55;27.68;99932.06;10499798;28;20050;-73
2023/08/17 08:31:07;;;;;;;8.38;2.45;;;;;;;36.17;27.27;99974.28;10500222;28;20040;-73
2023/08/17 08:36:08;;;;;;;5.07;2.20;;;;;;;36.07;27.29;99969.19;10499175;28;20044;-73
2023/08/17 08:41:09;;;;;;;15.85;3.05;;;;;;;36.08;27.24;99968.06;10499733;28;20040;-72
2023/08/17 08:46:14;;;;;;;17.40;2.83;;;;;;;36.40;27.43;99970.97;10492919;28;20431;-72
2023/08/17 08:51:22;;;;;;;6.97;2.10;;;;;;;35.94;28.00;99949.03;10460948;28;20053;-73
2023/08/17 08:56:24;;;;;;;13.05;3.03;;;;;;;36.05;28.43;99897.69;10460043;28;20045;-72
2023/08/17 09:01:26;;;;;;;8.32;2.83;;;;;;;36.80;28.10;99959.88;10479824;28;20044;-72
2023/08/17 09:06:29;;;;;;;10.57;2.50;;;;;;;36.96;27.96;99960.69;10476092;28;20068;-73
2023/08/17 09:11:30;;;;;;;10.25;3.10;;;;;;;36.73;27.85;99927.25;10479466;28;20045;-73
2023/08/17 09:16:30;;;;;;;5.83;2.37;;;;;;;36.08;27.25;99849.19;10476573;28;20041;-73
2023/08/17 09:21:33;;;;;;;6.90;2.40;;;;;;;35.77;27.22;99961.16;10477197;28;20483;-73
2023/08/17 09:26:33;;;;;;;7.82;2.50;;;;;;;35.09;27.71;99958.09;10487401;28;20040;-73
2023/08/17 09:31:34;;;;;;;11.00;2.67;;;;;;;35.35;27.96;99950.31;10476106;28;20040;-73
2023/08/17 09:36:36;;;;;;;10.90;2.78;;;;;;;35.78;28.69;99946.19;10481734;28;20067;-74
2023/08/17 09:41:41;;;;;;;8.70;2.40;;;;;;;36.15;28.41;99931.53;10474493;28;20037;-73
2023/08/17 09:46:45;;;;;;;12.23;2.28;;;;;;;36.24;27.77;99919.16;10479276;28;20290;-73
2023/08/17 09:51:45;;;;;;;8.90;2.60;;;;;;;36.19;26.73;99926.91;10483255;28;20040;-73
2023/08/17 09:56:46;;;;;;;6.80;2.20;;;;;;;36.18;27.22;99936.34;10455088;28;20041;-73
2023/08/17 10:01:49;;;;;;;7.60;2.28;;;;;;;36.14;26.25;99932.66;10455172;28;20044;-73
2023/08/17 10:07:00;;;;;;;20.85;2.88;;;;;;;35.74;26.97;99936.19;10455002;28;20057;-74
2023/08/17 10:12:10;;;;;;;25.20;3.60;;;;;;;35.58;28.43;99930.56;10453501;28;20048;-73
2023/08/17 10:17:12;;;;;;;14.43;2.92;;;;;;;36.17;28.18;99929.19;10454668;28;20457;-73
2023/08/17 10:22:18;;;;;;;42.88;4.18;;;;;;;36.65;25.89;99933.78;10453922;28;20036;-73
2023/08/17 10:27:21;;;;;;;13.98;2.78;;;;;;;36.74;26.39;99917.81;10453852;28;20548;-73
2023/08/17 10:32:23;;;;;;;17.98;2.95;;;;;;;36.60;27.38;99924.94;10453095;28;20037;-74
2023/08/17 10:37:24;;;;;;;28.67;2.97;;;;;;;35.89;27.92;99913.34;10454955;28;20095;-74
2023/08/17 10:42:36;;;;;;;20.70;2.70;;;;;;;35.99;27.24;99918.41;10453420;28;20065;-73
2023/08/17 10:47:37;;;;;;;13.52;2.58;;;;;;;35.77;26.76;99880.22;10454009;28;20041;-73
2023/08/17 10:52:38;;;;;;;15.40;3.22;;;;;;;35.47;27.71;99913.59;10453376;28;20037;-73
2023/08/17 10:57:41;;;;;;;10.15;2.65;;;;;;;35.21;27.90;99906.47;10453933;28;20041;-74
2023/08/17 11:03:07;;;;;;;5.75;2.30;;;;;;;35.84;26.63;99903.34;10478080;28;20040;-73
2023/08/17 11:08:10;;;;;;;11.07;2.63;;;;;;;36.18;25.95;99895.69;10460569;28;20132;-72
2023/08/17 11:13:11;;;;;;;5.05;2.22;;;;;;;36.37;25.52;99888.69;10461189;28;20102;-72
2023/08/17 11:18:12;;;;;;;10.38;2.50;;;;;;;36.68;25.71;99894.31;10461370;28;20047;-73
2023/08/17 11:23:13;;;;;;;9.57;2.70;;;;;;;37.04;25.44;99878.66;10461060;28;20044;-72
2023/08/17 11:28:15;;;;;;;9.73;2.85;;;;;;;36.89;25.32;99860.06;10493203;28;20048;-73
2023/08/17 11:33:16;;;;;;;7.55;2.13;;;;;;;36.58;25.23;99772.28;10469120;28;20045;-72
2023/08/17 11:38:17;;;;;;;11.00;2.80;;;;;;;36.96;25.22;99813.97;10459820;28;20045;-73
2023/08/17 11:43:20;;;;;;;13.50;5.23;;;;;;;37.10;25.53;99832.13;10488365;28;20077;-73
2023/08/17 11:48:21;;;;;;;11.13;2.60;;;;;;;37.29;25.29;99879.25;10484247;28;20045;-73
2023/08/17 11:53:22;;;;;;;11.00;2.60;;;;;;;37.44;25.81;99869.31;10480311;28;20089;-73
2023/08/17 11:58:42;;;;;;;6.17;2.50;;;;;;;37.35;25.54;99877.81;10478639;28;20442;-73
2023/08/17 12:03:44;;;;;;;14.47;9.33;;;;;;;36.87;24.92;99813.34;10484782;28;20496;-73
2023/08/17 12:08:46;;;;;;;13.95;3.13;;;;;;;36.93;25.68;99822.19;10493241;28;20063;-73
2023/08/17 12:13:51;;;;;;;14.10;3.30;;;;;;;37.09;25.32;99853.44;10491750;28;20029;-73
2023/08/17 12:18:52;;;;;;;45.15;3.97;;;;;;;36.84;25.21;99803.00;10487386;28;20516;-73
2023/08/17 12:23:53;;;;;;;27.38;2.80;;;;;;;37.13;25.29;99842.50;10493321;28;20044;-73
2023/08/17 12:28:56;;;;;;;5.27;2.50;;;;;;;37.21;25.25;99860.84;10484351;28;20049;-73
2023/08/17 12:33:57;;;;;;;13.50;2.95;;;;;;;36.79;24.36;99817.09;10460620;28;20048;-74
2023/08/17 12:38:58;;;;;;;15.90;4.17;;;;;;;37.08;24.58;99868.47;10473137;28;20047;-73
2023/08/17 12:43:59;;;;;;;9.33;2.77;;;;;;;36.93;24.86;99861.75;10475496;28;20464;-74
2023/08/17 12:49:00;;;;;;;8.87;2.53;;;;;;;36.85;24.77;99859.16;10476656;28;20040;-74
2023/08/17 12:54:00;;;;;;;12.53;2.47;;;;;;;36.86;24.97;99841.41;10483208;28;20041;-74
2023/08/17 12:59:01;;;;;;;7.20;2.30;;;;;;;36.95;25.17;99858.63;10476430;28;20052;-74
2023/08/17 13:04:02;;;;;;;25.40;3.47;;;;;;;37.03;25.19;99843.00;10476923;28;20048;-74
2023/08/17 13:09:03;;;;;;;41.73;3.00;;;;;;;37.17;24.72;99849.69;10481828;28;20468;-74
2023/08/17 13:14:04;;;;;;;15.30;2.70;;;;;;;37.23;25.44;99855.78;10485320;28;20528;-74
2023/08/17 13:19:05;;;;;;;8.90;2.43;;;;;;;37.15;24.48;99845.69;10477543;28;20431;-74
2023/08/17 13:24:06;;;;;;;9.73;2.30;;;;;;;37.02;24.36;99853.28;10473800;28;20048;-74
2023/08/17 13:29:06;;;;;;;13.83;2.67;;;;;;;36.67;24.70;99798.63;10456465;28;20090;-74
2023/08/17 13:34:07;;;;;;;26.50;2.88;;;;;;;36.87;24.12;99827.19;10455272;28;20083;-74
2023/08/17 13:39:08;;;;;;;15.07;2.50;;;;;;;37.05;24.53;99847.03;10453844;28;20045;-74
2023/08/17 13:44:09;;;;;;;22.97;3.30;;;;;;;37.05;24.95;99841.50;10455196;28;20106;-74
2023/08/17 13:49:24;;;;;;;22.25;2.95;;;;;;;36.39;24.71;99770.22;10455375;28;20438;-73
2023/08/17 13:54:29;;;;;;;16.90;2.20;;;;;;;36.74;24.24;99848.63;10464060;28;20040;-75
2023/08/17 13:59:30;;;;;;;22.57;3.40;;;;;;;36.72;24.42;99850.94;10490904;28;20072;-74
2023/08/17 14:04:31;;;;;;;126.80;8.80;;;;;;;36.70;24.75;99850.47;10479617;28;20555;-73
2023/08/17 14:09:32;;;;;;;30.17;3.07;;;;;;;36.69;24.78;99840.56;10467678;28;20041;-73
2023/08/17 14:14:34;;;;;;;19.27;3.15;;;;;;;36.52;24.15;99851.97;10454955;28;20041;-73
2023/08/17 14:19:34;;;;;;;;;;;;;;;36.66;23.56;99854.31;10455728;28;20453;-73
2023/08/17 14:24:35;;;;;;;34.90;3.67;;;;;;;36.21;24.93;99833.34;10454357;28;19951;-73
2023/08/17 14:29:36;;;;;;;17.88;2.30;;;;;;;36.05;24.84;99836.06;10453745;28;20048;-73
2023/08/17 14:34:37;;;;;;;17.45;2.67;;;;;;;35.51;24.97;99803.22;10456987;28;20045;-73
2023/08/17 14:39:37;;;;;;;11.32;2.40;;;;;;;35.55;24.58;99832.59;10462930;28;20040;-73
2023/08/17 14:44:38;;;;;;;26.58;3.45;;;;;;;35.37;24.97;99820.97;10462002;28;20489;-73
2023/08/17 14:49:39;;;;;;;14.23;2.38;;;;;;;35.38;24.81;99828.09;10462198;28;20462;-73
2023/08/17 14:54:40;;;;;;;11.40;2.47;;;;;;;35.34;24.90;99849.28;10462150;28;20044;-73
2023/08/17 14:59:41;;;;;;;33.05;3.22;;;;;;;35.05;25.79;99839.28;10462816;28;20095;-74
2023/08/17 15:04:42;;;;;;;23.25;2.67;;;;;;;34.67;26.59;99818.31;10461875;28;20155;-74
2023/08/17 15:09:43;;;;;;;12.38;2.63;;;;;;;34.69;26.69;99842.78;10461529;28;20049;-74
2023/08/17 15:14:43;;;;;;;28.48;3.90;;;;;;;34.47;27.07;99843.97;10461469;28;20551;-73
2023/08/17 15:19:44;;;;;;;31.60;3.70;;;;;;;34.38;27.80;99846.81;10461270;28;20051;-74
2023/08/17 15:24:46;;;;;;;17.83;4.13;;;;;;;33.83;27.98;99790.91;10473696;28;20052;-74
2023/08/17 15:29:46;;;;;;;32.60;6.13;;;;;;;33.84;28.75;99839.34;10460815;28;20048;-74
2023/08/17 15:34:47;;;;;;;30.48;5.43;;;;;;;33.54;30.45;99851.56;10488924;28;20044;-74
2023/08/17 15:39:48;;;;;;;29.98;4.53;;;;;;;33.23;30.78;99829.84;10500303;28;20487;-74
2023/08/17 15:44:51;;;;;;;23.15;5.25;;;;;;;32.95;30.51;99839.31;10500153;28;20407;-74
2023/08/17 15:49:52;;;;;;;16.80;6.15;;;;;;;32.69;30.58;99808.34;10500571;28;20098;-75
2023/08/17 15:54:52;;;;;;;42.67;7.35;;;;;;;32.75;31.81;99867.53;10498055;28;20051;-74
2023/08/17 15:59:53;;;;;;;54.72;7.47;;;;;;;32.14;31.61;99807.19;10459074;28;20114;-74
2023/08/17 16:04:54;;;;;;;57.33;10.88;;;;;;;32.18;31.74;99852.09;10459704;28;20139;-75
2023/08/17 16:09:55;;;;;;;21.50;5.22;;;;;;;31.73;32.26;99802.94;10459241;28;20057;-75
2023/08/17 16:14:55;;;;;;;36.13;6.88;;;;;;;31.83;32.01;99841.09;10458476;28;20045;-74
2023/08/17 16:19:56;;;;;;;24.05;5.90;;;;;;;31.72;32.46;99859.00;10459013;28;20476;-74
2023/08/17 16:24:57;;;;;;;17.83;6.80;;;;;;;31.67;31.89;99872.88;10457375;28;20040;-75
2023/08/17 16:29:58;;;;;;;18.67;4.70;;;;;;;31.60;31.69;99869.81;10456670;28;20048;-74
2023/08/17 16:34:58;;;;;;;16.23;5.82;;;;;;;31.58;32.10;99855.59;10458958;28;20051;-74
2023/08/17 16:40:00;;;;;;;19.13;6.00;;;;;;;31.65;31.31;99886.16;10458063;28;20048;-74
2023/08/17 16:45:01;;;;;;;19.65;9.48;;;;;;;31.60;31.39;99897.28;10474776;28;20095;-74
2023/08/17 16:50:01;;;;;;;15.23;5.80;;;;;;;31.08;31.62;99839.44;10457230;28;20483;-72
2023/08/17 16:55:02;;;;;;;20.17;4.68;;;;;;;31.20;31.83;99878.06;10456788;28;20127;-72
2023/08/17 17:00:07;;;;;;;27.63;15.68;;;;;;;31.22;31.69;99914.22;10456928;28;20044;-72
2023/08/17 17:05:08;;;;;;;23.55;6.70;;;;;;;30.99;31.89;99904.44;10470034;28;20056;-72
2023/08/17 17:10:09;;;;;;;19.15;6.43;;;;;;;30.91;32.12;99908.75;10458454;28;20098;-72
2023/08/17 17:15:10;;;;;;;17.88;4.78;;;;;;;30.34;32.24;99850.97;10456583;28;20052;-72
2023/08/17 17:20:11;;;;;;;19.83;7.80;;;;;;;30.45;32.20;99898.91;10456465;28;20037;-72
2023/08/17 17:25:12;;;;;;;12.25;5.00;;;;;;;30.24;32.18;99890.38;10455756;28;20041;-74
2023/08/17 17:30:13;;;;;;;17.33;6.88;;;;;;;30.40;32.19;99932.75;10455022;28;20090;-75
2023/08/17 17:35:13;;;;;;;22.30;14.57;;;;;;;30.26;32.27;99931.97;10454931;28;20052;-74
2023/08/17 17:40:14;;;;;;;25.52;14.80;;;;;;;29.56;32.65;99846.41;10456255;28;20040;-74
2023/08/17 17:45:16;;;;;;;21.20;6.00;;;;;;;29.48;32.87;99863.53;10456210;28;20159;-74
2023/08/17 17:50:17;;;;;;;18.67;5.55;;;;;;;29.82;33.10;99935.38;10454923;28;20041;-75
2023/08/17 17:55:18;;;;;;;26.83;7.18;;;;;;;29.72;32.86;99950.09;10457260;28;20463;-75
2023/08/17 18:00:19;;;;;;;10.98;4.15;;;;;;;29.67;32.74;99948.28;10474214;28;20091;-75
2023/08/17 18:05:20;;;;;;;11.02;3.22;;;;;;;29.50;33.23;99942.59;10454683;28;20083;-76
2023/08/17 18:10:20;;;;;;;24.38;11.75;;;;;;;29.41;33.71;99953.44;10457737;28;20060;-75
2023/08/17 18:15:21;;;;;;;25.80;13.82;;;;;;;28.85;33.88;99895.06;10473172;28;20045;-75
2023/08/17 18:20:22;;;;;;;28.38;16.92;;;;;;;29.18;33.96;99957.16;10477161;28;20067;-76
2023/08/17 18:25:24;;;;;;;25.83;10.20;;;;;;;29.13;33.98;99964.31;10474598;28;20123;-75
2023/08/17 18:30:25;;;;;;;13.90;8.20;;;;;;;28.97;33.84;99937.53;10471812;28;20512;-74
2023/08/17 18:35:26;;;;;;;25.10;13.38;;;;;;;29.03;33.74;99959.03;10481138;28;20037;-73
2023/08/17 18:40:27;;;;;;;28.65;17.85;;;;;;;28.93;33.95;99967.41;10453557;28;20451;-73
2023/08/17 18:45:28;;;;;;;21.73;10.82;;;;;;;28.75;34.23;99951.81;10453468;28;20128;-73
2023/08/17 18:50:29;;;;;;;28.42;9.18;;;;;;;28.69;34.54;99973.00;10453326;28;20120;-74
2023/08/17 18:55:32;;;;;;;11.88;4.00;;;;;;;28.52;34.68;99962.59;10454506;28;20182;-76
2023/08/17 19:00:32;;;;;;;7.73;3.70;;;;;;;28.15;34.82;99912.31;10453553;28;20037;-74
2023/08/17 19:05:33;;;;;;;10.82;4.43;;;;;;;28.12;34.85;99909.31;10453327;28;20040;-74
2023/08/17 19:10:35;;;;;;;9.07;5.90;;;;;;;28.30;34.75;99954.13;10471613;28;20412;-73
2023/08/17 19:15:38;;;;;;;15.02;3.80;;;;;;;28.34;34.95;99966.91;10490584;28;20044;-74
2023/08/17 19:20:39;;;;;;;10.07;2.67;;;;;;;28.26;34.92;99981.22;10487288;28;20048;-74
2023/08/17 19:25:40;;;;;;;10.60;2.70;;;;;;;28.16;35.32;99976.72;10502190;28;20036;-74
2023/08/17 19:30:41;;;;;;;8.27;1.90;;;;;;;27.76;34.87;99917.97;10502200;28;20033;-73
2023/08/17 19:35:42;;;;;;;5.78;1.77;;;;;;;28.08;35.18;99979.28;10501724;28;20495;-74
2023/08/17 19:40:44;;;;;;;8.55;1.85;;;;;;;27.90;35.36;99951.66;10501625;28;20045;-74
2023/08/17 19:45:45;;;;;;;9.27;1.70;;;;;;;27.61;35.12;99916.28;10501626;28;20047;-74
2023/08/17 19:50:46;;;;;;;6.90;1.80;;;;;;;27.67;35.49;99958.75;10482861;28;20045;-74
2023/08/17 19:55:47;;;;;;;11.90;2.35;;;;;;;27.78;35.70;100003.13;10459716;28;20056;-74
2023/08/17 20:00:48;;;;;;;16.13;2.55;;;;;;;27.50;36.96;99989.22;10459457;28;20037;-74
2023/08/17 20:05:49;;;;;;;10.73;2.33;;;;;;;27.41;37.20;100022.88;10459191;28;20412;-74
2023/08/17 20:10:50;;;;;;;12.23;1.90;;;;;;;27.34;36.78;100003.31;10459164;28;20041;-74
2023/08/17 20:15:54;;;;;;;7.00;1.80;;;;;;;27.23;37.17;100041.59;10459045;28;20051;-74
2023/08/17 20:20:55;;;;;;;7.60;2.30;;;;;;;27.12;37.18;99999.13;10458728;28;20127;-74
2023/08/17 20:25:56;;;;;;;5.85;1.77;;;;;;;27.22;37.00;100006.41;10458537;28;20044;-74
2023/08/17 20:30:58;;;;;;;4.15;2.00;;;;;;;27.04;37.39;100005.19;10457842;28;20032;-74
2023/08/17 20:35:59;;;;;;;10.27;1.70;;;;;;;26.38;37.18;99884.72;10456812;28;20488;-74
2023/08/17 20:41:05;;;;;;;9.43;1.70;;;;;;;27.09;38.04;100002.41;10457167;28;20124;-74
2023/08/17 20:46:06;;;;;;;8.10;1.77;;;;;;;26.55;38.55;99959.78;10457565;28;20051;-74
2023/08/17 20:51:07;;;;;;;24.13;2.45;;;;;;;26.57;39.69;99998.47;10456746;28;20032;-74
2023/08/17 20:56:08;;;;;;;7.00;1.80;;;;;;;26.39;40.07;100005.34;10456720;28;20044;-74
2023/08/17 21:01:09;;;;;;;8.20;2.40;;;;;;;26.16;41.73;100004.09;10456552;28;20072;-74
2023/08/17 21:06:09;;;;;;;7.63;2.20;;;;;;;25.95;43.11;99998.75;10456762;28;20064;-74
2023/08/17 21:11:11;;;;;;;11.68;2.22;;;;;;;25.65;42.74;99956.13;10467486;28;20106;-74
2023/08/17 21:16:12;;;;;;;13.43;2.15;;;;;;;25.89;42.73;99986.25;10454647;28;20047;-74
2023/08/17 21:21:12;;;;;;;5.88;2.30;;;;;;;25.87;41.81;99966.66;10456835;28;20041;-74
2023/08/17 21:26:13;;;;;;;8.93;2.05;;;;;;;26.04;41.12;99981.84;10455392;28;20048;-73
2023/08/17 21:31:15;;;;;;;5.05;1.73;;;;;;;25.77;41.18;99934.03;10456031;28;20033;-74
2023/08/17 21:36:16;;;;;;;5.35;1.67;;;;;;;26.01;40.85;99944.31;10455570;28;20047;-73
2023/08/17 21:41:16;;;;;;;8.75;2.00;;;;;;;26.19;40.49;99968.97;10455456;28;20485;-73
2023/08/17 21:46:17;;;;;;;4.95;1.70;;;;;;;25.98;40.23;99920.38;10454537;28;20148;-74
2023/08/17 21:51:18;;;;;;;5.35;1.90;;;;;;;25.76;40.36;99880.72;10456345;28;20477;-74
2023/08/17 21:56:19;;;;;;;6.28;1.70;;;;;;;26.02;41.25;99940.47;10455565;28;20041;-74
2023/08/17 22:01:19;;;;;;;2.55;1.73;;;;;;;25.98;42.32;99961.19;10454697;28;20514;-74
2023/08/17 22:06:20;;;;;;;5.45;1.75;;;;;;;25.44;42.50;99898.25;10454756;28;20057;-74
2023/08/17 22:11:21;;;;;;;6.88;1.88;;;;;;;25.54;43.19;99945.53;10454031;28;20086;-74
2023/08/17 22:16:22;;;;;;;3.22;1.70;;;;;;;25.32;43.84;99932.28;10453712;28;20095;-74
2023/08/17 22:21:22;;;;;;;8.25;2.10;;;;;;;24.94;43.91;99899.97;10453768;28;20044;-74
2023/08/17 22:26:23;;;;;;;5.63;1.85;;;;;;;25.31;44.00;99969.53;10453566;28;20090;-74
2023/08/17 22:31:24;;;;;;;4.68;1.80;;;;;;;25.11;45.04;99937.72;10453593;28;20064;-74
2023/08/17 22:36:25;;;;;;;7.07;1.90;;;;;;;25.02;45.00;99928.50;10453035;28;20460;-74
2023/08/17 22:41:26;;;;;;;7.40;1.83;;;;;;;24.96;45.33;99935.03;10453675;28;20497;-74
2023/08/17 22:46:26;;;;;;;7.60;2.20;;;;;;;25.02;45.76;99955.69;10453901;28;20052;-74
2023/08/17 22:51:28;;;;;;;4.78;1.67;;;;;;;24.75;45.76;99937.75;10453186;28;20195;-74
2023/08/17 22:56:28;;;;;;;5.75;1.73;;;;;;;24.44;46.01;99920.66;10457660;28;20291;-74
2023/08/17 23:01:29;;;;;;;5.47;1.77;;;;;;;24.62;45.83;99957.31;10461860;28;20071;-73
2023/08/17 23:06:30;;;;;;;7.43;1.83;;;;;;;24.06;45.86;99864.91;10460906;28;20071;-72